createdAt,value
2023-04-16T00:02:13.782Z,11.06
2023-04-16T00:04:41.274Z,11.20
2023-04-16T00:07:08.648Z,10.74
2023-04-16T00:09:35.868Z,11.16
2023-04-16T00:12:03.283Z,11.31
2023-04-16T00:14:30.841Z,11.44
2023-04-16T00:16:57.844Z,11.47
2023-04-16T00:19:24.896Z,11.43
2023-04-16T00:21:52.378Z,11.31
2023-04-16T00:24:19.342Z,11.21
2023-04-16T00:26:46.726Z,11.29
2023-04-16T00:29:13.705Z,11.37
2023-04-16T00:31:40.887Z,11.24
2023-04-16T00:34:08.109Z,11.37
2023-04-16T00:36:35.246Z,11.33
2023-04-16T00:39:02.257Z,11.18
2023-04-16T00:41:29.301Z,11.23
2023-04-16T00:43:56.483Z,10.39
2023-04-16T00:46:25.031Z,11.00
2023-04-16T00:48:54.497Z,10.97
2023-04-16T00:51:22.715Z,11.12
2023-04-16T00:53:49.996Z,11.14
2023-04-16T00:56:17.878Z,11.04
2023-04-16T00:58:45.403Z,11.10
2023-04-16T01:01:14.476Z,11.14
2023-04-16T01:03:45.948Z,10.93
2023-04-16T01:06:14.249Z,11.10
2023-04-16T01:08:41.348Z,11.17
2023-04-16T01:11:08.612Z,11.13
2023-04-16T01:13:39.552Z,11.09
2023-04-16T01:16:11.870Z,11.16
2023-04-16T01:18:39.672Z,11.36
2023-04-16T01:21:06.914Z,11.33
2023-04-16T01:23:33.899Z,11.41
2023-04-16T01:26:01.146Z,11.57
2023-04-16T01:28:28.151Z,11.39
2023-04-16T01:30:55.167Z,11.28
2023-04-16T01:33:22.182Z,11.12
2023-04-16T01:35:49.264Z,10.70
2023-04-16T01:38:16.375Z,10.95
2023-04-16T01:40:43.588Z,11.06
2023-04-16T01:43:11.174Z,11.15
2023-04-16T01:45:38.184Z,10.68
2023-04-16T01:48:05.613Z,10.53
2023-04-16T01:50:32.734Z,10.67
2023-04-16T01:52:59.784Z,10.36
2023-04-16T01:55:27.227Z,10.46
2023-04-16T01:57:54.329Z,10.38
2023-04-16T02:00:21.362Z,10.07
2023-04-16T02:02:49.584Z,10.07
2023-04-16T02:05:16.862Z,9.80
2023-04-16T02:07:43.793Z,9.95
2023-04-16T02:10:10.912Z,9.80
2023-04-16T02:12:37.926Z,9.77
2023-04-16T02:15:05.476Z,10.24
2023-04-16T02:17:32.593Z,10.33
2023-04-16T02:19:59.526Z,10.54
2023-04-16T02:22:26.432Z,10.53
2023-04-16T02:24:53.570Z,10.25
2023-04-16T02:27:20.668Z,10.37
2023-04-16T02:29:47.631Z,9.96
2023-04-16T02:32:14.668Z,9.55
2023-04-16T02:34:42.834Z,9.70
2023-04-16T02:37:09.728Z,10.39
2023-04-16T02:39:36.656Z,10.22
2023-04-16T02:42:03.729Z,10.18
2023-04-16T02:44:30.799Z,9.96
2023-04-16T02:46:57.714Z,10.14
2023-04-16T02:49:24.715Z,9.89
2023-04-16T02:51:51.659Z,9.42
2023-04-16T02:54:18.616Z,9.30
2023-04-16T02:56:45.752Z,9.98
2023-04-16T02:59:12.668Z,9.63
2023-04-16T03:01:39.699Z,9.94
2023-04-16T03:04:06.875Z,9.46
2023-04-16T03:06:33.918Z,9.24
2023-04-16T03:09:00.877Z,9.35
2023-04-16T03:11:30.949Z,9.20
2023-04-16T03:13:58.077Z,9.45
2023-04-16T03:16:25.013Z,9.48
2023-04-16T03:18:52.086Z,9.27
2023-04-16T03:21:19.188Z,9.24
2023-04-16T03:23:46.104Z,9.03
2023-04-16T03:26:13.063Z,8.86
2023-04-16T03:28:40.023Z,9.39
2023-04-16T03:31:07.112Z,9.23
2023-04-16T03:33:34.094Z,9.90
2023-04-16T03:36:01.125Z,9.95
2023-04-16T03:38:28.225Z,9.72
2023-04-16T03:40:55.310Z,10.22
2023-04-16T03:43:22.345Z,10.26
2023-04-16T03:45:49.562Z,10.33
2023-04-16T03:48:18.764Z,9.98
2023-04-16T03:50:55.115Z,10.40
2023-04-16T03:53:40.524Z,9.87
2023-04-16T03:56:07.789Z,10.32
2023-04-16T03:58:35.346Z,10.13
2023-04-16T04:01:02.387Z,10.14
2023-04-16T04:03:29.548Z,10.54
2023-04-16T04:05:56.821Z,10.73
2023-04-16T04:08:23.853Z,10.69
2023-04-16T04:10:51.461Z,10.83
2023-04-16T04:13:19.772Z,10.71
2023-04-16T04:15:46.811Z,10.60
2023-04-16T04:18:13.726Z,10.89
2023-04-16T04:20:43.967Z,10.97
2023-04-16T04:23:11.215Z,11.17
2023-04-16T04:25:38.312Z,11.21
2023-04-16T04:28:05.431Z,11.21
2023-04-16T04:30:32.397Z,11.31
2023-04-16T04:32:59.466Z,11.22
2023-04-16T04:35:26.491Z,10.99
2023-04-16T04:37:53.447Z,11.23
2023-04-16T04:40:20.702Z,11.27
2023-04-16T04:42:47.753Z,11.21
2023-04-16T04:45:14.726Z,11.37
2023-04-16T04:47:41.862Z,11.36
2023-04-16T04:50:09.346Z,11.32
2023-04-16T04:52:36.525Z,11.22
2023-04-16T04:55:03.977Z,11.05
2023-04-16T04:57:31.034Z,11.02
2023-04-16T04:59:58.021Z,11.10
2023-04-16T05:02:25.097Z,10.99
2023-04-16T05:04:52.189Z,10.67
2023-04-16T05:07:19.238Z,10.78
2023-04-16T05:09:46.323Z,10.96
2023-04-16T05:12:13.342Z,10.90
2023-04-16T05:14:40.410Z,10.80
2023-04-16T05:17:08.350Z,11.02
2023-04-16T05:19:35.627Z,10.12
2023-04-16T05:22:03.010Z,10.33
2023-04-16T05:24:30.257Z,10.50
2023-04-16T05:26:57.508Z,9.87
2023-04-16T05:29:24.571Z,10.03
2023-04-16T05:31:51.593Z,10.35
2023-04-16T05:34:18.690Z,10.16
2023-04-16T05:36:46.177Z,9.83
2023-04-16T05:39:13.234Z,9.78
2023-04-16T05:41:40.209Z,9.34
2023-04-16T05:44:07.228Z,8.97
2023-04-16T05:46:34.488Z,8.88
2023-04-16T05:49:01.616Z,8.59
2023-04-16T05:51:29.688Z,8.73
2023-04-16T05:53:56.713Z,8.79
2023-04-16T05:56:23.751Z,9.08
2023-04-16T05:58:50.836Z,9.39
2023-04-16T06:01:18.872Z,9.36
2023-04-16T06:03:46.158Z,9.16
2023-04-16T06:06:13.496Z,8.82
2023-04-16T06:08:40.586Z,9.09
2023-04-16T06:11:07.658Z,9.26
2023-04-16T06:13:34.610Z,9.35
2023-04-16T06:16:01.699Z,8.95
2023-04-16T06:18:28.667Z,9.43
2023-04-16T06:20:55.979Z,8.96
2023-04-16T06:23:22.988Z,9.31
2023-04-16T06:25:50.015Z,9.31
2023-04-16T06:28:17.004Z,9.30
2023-04-16T06:30:44.751Z,9.14
2023-04-16T06:33:12.170Z,9.75
2023-04-16T06:35:39.202Z,9.05
2023-04-16T06:38:06.309Z,9.44
2023-04-16T06:40:33.372Z,9.18
2023-04-16T06:43:00.644Z,9.17
2023-04-16T06:45:27.681Z,9.02
2023-04-16T06:47:54.753Z,9.35
2023-04-16T06:50:23.641Z,9.38
2023-04-16T06:52:50.804Z,9.74
2023-04-16T06:55:17.924Z,9.52
2023-04-16T06:57:44.939Z,9.54
2023-04-16T07:00:12.549Z,9.36
2023-04-16T07:02:39.770Z,9.36
2023-04-16T07:05:07.162Z,9.59
2023-04-16T07:07:34.228Z,9.57
2023-04-16T07:10:01.305Z,9.17
2023-04-16T07:12:28.310Z,9.28
2023-04-16T07:14:55.279Z,9.60
2023-04-16T07:17:22.279Z,9.89
2023-04-16T07:19:49.338Z,9.54
2023-04-16T07:22:16.954Z,9.05
2023-04-16T07:24:43.954Z,9.28
2023-04-16T07:27:11.830Z,9.30
2023-04-16T07:29:38.803Z,9.89
2023-04-16T07:32:05.863Z,9.46
2023-04-16T07:34:32.877Z,10.07
2023-04-16T07:36:59.955Z,9.49
2023-04-16T07:39:26.948Z,9.75
2023-04-16T07:41:53.988Z,8.92
2023-04-16T07:44:21.119Z,9.37
2023-04-16T07:46:48.282Z,9.48
2023-04-16T07:49:15.837Z,10.18
2023-04-16T07:51:42.981Z,10.04
2023-04-16T07:54:11.285Z,9.72
2023-04-16T07:56:38.335Z,10.47
2023-04-16T07:59:21.166Z,10.49
2023-04-16T08:01:49.877Z,10.78
2023-04-16T08:04:23.459Z,10.15
2023-04-16T08:06:51.969Z,10.08
2023-04-16T08:09:21.379Z,10.26
2023-04-16T08:11:50.147Z,9.78
2023-04-16T08:14:17.864Z,9.57
2023-04-16T08:16:45.254Z,9.67
2023-04-16T08:19:12.710Z,9.82
2023-04-16T08:21:40.138Z,10.14
2023-04-16T08:24:07.349Z,10.12
2023-04-16T08:26:34.382Z,9.99
2023-04-16T08:29:01.587Z,9.65
2023-04-16T08:31:28.655Z,9.77
2023-04-16T08:33:55.791Z,10.33
2023-04-16T08:36:22.872Z,10.30
2023-04-16T08:38:50.860Z,9.88
2023-04-16T08:41:17.845Z,10.69
2023-04-16T08:43:48.839Z,10.34
2023-04-16T08:46:18.192Z,10.28
2023-04-16T08:48:50.114Z,10.42
2023-04-16T08:51:20.068Z,10.22
2023-04-16T08:53:54.165Z,10.76
2023-04-16T08:56:24.160Z,10.93
2023-04-16T08:58:53.246Z,10.84
2023-04-16T09:40:30.711Z,10.17
2023-04-16T09:42:59.067Z,10.05
2023-04-16T09:45:26.483Z,10.12
2023-04-16T09:47:53.525Z,10.05
2023-04-16T09:50:21.040Z,10.29
2023-04-16T09:52:51.879Z,9.48
2023-04-16T09:55:24.250Z,9.44
2023-04-16T09:57:59.753Z,9.86
2023-04-16T10:00:26.819Z,10.35
2023-04-16T10:03:05.937Z,9.93
2023-04-16T10:05:33.064Z,10.57
2023-04-16T10:08:02.971Z,10.73
2023-04-16T10:10:30.894Z,10.52
2023-04-16T10:12:58.717Z,10.04
2023-04-16T10:15:25.967Z,10.35
2023-04-16T10:17:54.411Z,10.50
2023-04-16T10:20:23.005Z,10.26
2023-04-16T10:22:50.565Z,10.08
2023-04-16T10:25:18.296Z,10.27
2023-04-16T10:27:46.173Z,10.54
2023-04-16T10:30:15.778Z,10.50
2023-04-16T10:32:43.023Z,10.63
2023-04-16T10:35:10.098Z,10.91
2023-04-16T10:37:37.999Z,10.88
2023-04-16T10:40:26.620Z,11.28
2023-04-16T10:42:58.441Z,11.52
2023-04-16T10:45:37.659Z,11.24
2023-04-16T10:48:07.004Z,11.47
2023-04-16T10:50:37.992Z,12.13
2023-04-16T10:53:24.290Z,11.91
2023-04-16T10:56:03.313Z,11.86
2023-04-16T10:58:32.183Z,11.57
2023-04-16T11:01:07.106Z,11.80
2023-04-16T11:03:34.249Z,11.59
2023-04-16T11:06:24.101Z,11.59
2023-04-16T11:09:09.434Z,11.75
2023-04-16T11:11:39.828Z,11.63
2023-04-16T11:14:08.348Z,11.46
2023-04-16T11:16:35.307Z,11.74
2023-04-16T11:19:02.395Z,11.72
2023-04-16T11:21:29.569Z,11.46
2023-04-16T11:23:58.251Z,11.74
2023-04-16T11:26:27.675Z,11.43
2023-04-16T11:28:57.089Z,11.68
2023-04-16T11:31:24.898Z,12.26
2023-04-16T11:33:51.977Z,12.16
2023-04-16T11:36:19.210Z,12.41
2023-04-16T11:38:47.430Z,12.64
2023-04-16T11:41:21.027Z,12.96
2023-04-16T11:43:48.066Z,12.72
2023-04-16T11:46:27.077Z,12.91
2023-04-16T11:48:55.846Z,12.89
2023-04-16T11:51:23.819Z,13.29
2023-04-16T11:53:55.206Z,13.16
2023-04-16T11:56:29.655Z,13.42
2023-04-16T11:59:09.699Z,13.50
2023-04-16T12:01:38.405Z,14.26
2023-04-16T12:04:05.763Z,14.08
2023-04-16T12:06:33.242Z,13.81
2023-04-16T12:09:24.160Z,13.79
2023-04-16T12:11:51.270Z,14.02
2023-04-16T12:14:18.368Z,13.79
2023-04-16T12:16:45.581Z,13.45
2023-04-16T12:19:13.479Z,13.52
2023-04-16T12:21:48.364Z,12.85
2023-04-16T12:24:24.496Z,13.88
2023-04-16T12:27:03.450Z,13.95
2023-04-16T12:29:30.469Z,14.03
2023-04-16T12:31:58.120Z,14.12
2023-04-16T12:34:29.113Z,13.20
2023-04-16T12:37:13.161Z,13.81
2023-04-16T12:39:40.719Z,13.50
2023-04-16T12:42:11.480Z,13.71
2023-04-16T12:44:38.650Z,14.44
2023-04-16T12:47:05.851Z,13.83
2023-04-16T12:49:32.915Z,13.47
2023-04-16T12:51:59.934Z,13.33
2023-04-16T12:54:29.367Z,13.60
2023-04-16T12:56:56.359Z,13.45
2023-04-16T12:59:23.858Z,13.69
2023-04-16T13:01:50.964Z,14.03
2023-04-16T13:04:19.353Z,13.30
2023-04-16T13:06:46.588Z,13.57
2023-04-16T13:09:13.550Z,13.64
2023-04-16T13:11:40.517Z,13.52
2023-04-16T13:14:07.504Z,13.73
2023-04-16T13:16:34.671Z,14.07
2023-04-16T13:19:01.631Z,14.29
2023-04-16T13:21:28.777Z,14.01
2023-04-16T13:23:55.758Z,13.89
2023-04-16T13:26:22.693Z,14.26
2023-04-16T13:28:49.699Z,13.63
2023-04-16T13:31:20.167Z,13.52
2023-04-16T13:33:47.462Z,13.78
2023-04-16T13:36:14.840Z,13.37
2023-04-16T13:38:42.571Z,13.62
2023-04-16T13:41:09.486Z,13.62
2023-04-16T13:43:37.599Z,13.85
2023-04-16T13:46:04.753Z,13.91
2023-04-16T13:48:31.853Z,13.64
2023-04-16T13:50:58.863Z,13.88
2023-04-16T13:53:26.103Z,14.45
2023-04-16T13:55:53.175Z,13.38
2023-04-16T13:58:20.803Z,13.89
2023-04-16T14:00:47.896Z,13.92
2023-04-16T14:03:14.999Z,13.69
2023-04-16T14:05:41.971Z,13.36
2023-04-16T14:08:10.268Z,13.99
2023-04-16T14:10:37.241Z,14.29
2023-04-16T14:13:04.291Z,13.56
2023-04-16T14:15:31.868Z,13.60
2023-04-16T14:17:58.815Z,13.95
2023-04-16T14:20:25.959Z,14.26
2023-04-16T14:22:52.995Z,13.64
2023-04-16T14:25:20.072Z,14.53
2023-04-16T14:27:47.102Z,14.64
2023-04-16T14:30:14.207Z,14.52
2023-04-16T14:32:41.359Z,13.54
2023-04-16T14:35:08.968Z,13.78
2023-04-16T14:37:36.952Z,13.58
2023-04-16T14:40:09.082Z,13.49
2023-04-16T14:42:36.996Z,13.54
2023-04-16T14:45:06.798Z,13.91
2023-04-16T14:47:34.634Z,13.53
2023-04-16T14:50:02.559Z,13.57
2023-04-16T14:52:32.029Z,13.35
2023-04-16T14:54:59.061Z,13.16
2023-04-16T14:57:26.910Z,13.36
2023-04-16T14:59:53.863Z,13.13
2023-04-16T15:02:21.785Z,13.55
2023-04-16T15:04:48.994Z,12.83
2023-04-16T15:07:16.060Z,13.10
2023-04-16T15:09:43.105Z,13.00
2023-04-16T15:12:10.023Z,12.84
2023-04-16T15:14:37.165Z,13.08
2023-04-16T15:17:04.359Z,13.20
2023-04-16T15:19:31.344Z,12.95
2023-04-16T15:21:58.311Z,13.36
2023-04-16T15:24:25.213Z,13.40
2023-04-16T15:26:52.279Z,12.89
2023-04-16T15:29:19.203Z,12.89
2023-04-16T15:31:47.820Z,12.89
2023-04-16T15:34:14.887Z,12.86
2023-04-16T15:36:42.480Z,13.14
2023-04-16T15:39:10.033Z,13.41
2023-04-16T15:41:53.370Z,12.91
2023-04-16T15:44:26.857Z,12.62
2023-04-16T15:46:53.866Z,12.85
2023-04-16T15:49:20.822Z,13.20
2023-04-16T15:51:47.815Z,12.77
2023-04-16T15:54:14.794Z,12.86
2023-04-16T15:56:41.965Z,12.89
2023-04-16T15:59:09.780Z,12.63
2023-04-16T16:01:36.942Z,12.67
2023-04-16T16:04:04.399Z,12.68
2023-04-16T16:06:31.773Z,12.51
2023-04-16T16:08:59.586Z,12.32
2023-04-16T16:11:27.657Z,12.42
2023-04-16T16:13:54.627Z,12.84
2023-04-16T16:16:22.153Z,12.68
2023-04-16T16:18:49.281Z,13.05
2023-04-16T16:21:16.471Z,12.23
2023-04-16T16:23:43.475Z,12.51
2023-04-16T16:26:10.514Z,12.57
2023-04-16T16:28:38.269Z,12.58
2023-04-16T16:31:06.240Z,12.06
2023-04-16T16:33:33.460Z,12.22
2023-04-16T16:36:00.632Z,12.35
2023-04-16T16:38:27.987Z,11.93
2023-04-16T16:40:55.004Z,12.07
2023-04-16T16:43:22.806Z,12.28
2023-04-16T16:45:49.852Z,12.32
2023-04-16T16:48:16.852Z,12.11
2023-04-16T16:50:43.837Z,12.02
2023-04-16T16:53:10.830Z,12.25
2023-04-16T16:55:38.349Z,11.98
2023-04-16T16:58:05.471Z,12.02
2023-04-16T17:00:32.574Z,11.78
2023-04-16T17:02:59.918Z,12.40
2023-04-16T17:05:27.168Z,11.86
2023-04-16T17:07:54.349Z,11.98
2023-04-16T17:10:21.536Z,11.70
2023-04-16T17:12:49.792Z,11.24
2023-04-16T17:15:19.685Z,11.52
2023-04-16T17:17:48.535Z,11.90
2023-04-16T17:20:15.844Z,11.64
2023-04-16T17:22:43.085Z,11.51
2023-04-16T17:25:10.414Z,11.43
2023-04-16T17:27:37.374Z,11.48
2023-04-16T17:30:06.009Z,11.42
2023-04-16T17:32:33.651Z,11.10
2023-04-16T17:35:02.154Z,11.03
2023-04-16T17:37:29.338Z,11.33
2023-04-16T17:39:56.519Z,11.18
2023-04-16T17:42:24.873Z,10.96
2023-04-16T17:44:52.134Z,11.27
2023-04-16T17:47:19.168Z,11.17
2023-04-16T17:49:46.227Z,10.75
2023-04-16T17:52:13.293Z,11.22
2023-04-16T17:54:40.283Z,10.94
2023-04-16T17:57:07.385Z,11.07
2023-04-16T17:59:34.900Z,11.30
2023-04-16T18:02:02.124Z,11.27
2023-04-16T18:04:29.420Z,11.09
2023-04-16T18:06:56.573Z,11.15
2023-04-16T18:09:23.569Z,11.02
2023-04-16T18:11:50.552Z,10.88
2023-04-16T18:14:20.241Z,11.22
2023-04-16T18:16:50.247Z,11.13
2023-04-16T18:19:17.342Z,11.03
2023-04-16T18:21:44.340Z,11.06
2023-04-16T18:24:11.999Z,11.31
2023-04-16T18:26:41.087Z,11.28
2023-04-16T18:29:09.132Z,11.00
2023-04-16T18:31:36.583Z,10.88
2023-04-16T18:34:03.707Z,10.92
2023-04-16T18:36:31.445Z,11.28
2023-04-16T18:39:01.777Z,11.09
2023-04-16T18:41:31.074Z,11.03
2023-04-16T18:43:58.119Z,11.12
2023-04-16T18:46:25.559Z,11.09
2023-04-16T18:48:52.588Z,11.21
2023-04-16T18:51:19.665Z,11.44
2023-04-16T18:53:46.748Z,10.90
2023-04-16T18:56:13.718Z,11.02
2023-04-16T18:58:40.749Z,11.20
2023-04-16T19:01:11.376Z,11.25
2023-04-16T19:03:39.031Z,11.02
2023-04-16T19:06:06.474Z,11.16
2023-04-16T19:08:33.541Z,11.28
2023-04-16T19:11:00.521Z,11.58
2023-04-16T19:13:27.651Z,10.83
2023-04-16T19:16:00.000Z,11.21
2023-04-16T19:18:27.329Z,10.94
2023-04-16T19:21:01.097Z,11.09
2023-04-16T19:23:28.812Z,11.06
2023-04-16T19:25:57.163Z,10.71
2023-04-16T19:28:24.933Z,10.87
2023-04-16T19:30:52.826Z,10.66
2023-04-16T19:33:20.174Z,11.12
2023-04-16T19:35:47.545Z,10.92
2023-04-16T19:38:14.578Z,10.99
2023-04-16T19:40:45.693Z,11.17
2023-04-16T19:43:12.924Z,10.96
2023-04-16T19:45:47.616Z,11.36
2023-04-16T19:48:14.954Z,10.95
2023-04-16T19:50:43.270Z,10.86
2023-04-16T19:53:11.299Z,11.00
2023-04-16T19:55:42.294Z,10.73
2023-04-16T19:58:10.041Z,11.03
2023-04-16T20:00:39.006Z,10.91
2023-04-16T20:03:06.590Z,10.82
2023-04-16T20:05:34.121Z,10.42
2023-04-16T20:08:01.453Z,10.59
2023-04-16T20:10:29.466Z,10.89
2023-04-16T20:12:56.581Z,11.11
2023-04-16T20:15:23.546Z,10.90
2023-04-16T20:17:50.634Z,10.61
2023-04-16T20:20:17.738Z,10.70
2023-04-16T20:22:44.780Z,10.88
2023-04-16T20:25:11.801Z,10.97
2023-04-16T20:27:38.775Z,10.86
2023-04-16T20:30:06.520Z,10.76
2023-04-16T20:32:33.599Z,10.58
2023-04-16T20:35:02.176Z,10.52
2023-04-16T20:37:29.346Z,10.39
2023-04-16T20:39:56.545Z,10.80
2023-04-16T20:42:23.668Z,10.75
2023-04-16T20:44:50.707Z,10.69
2023-04-16T20:47:17.676Z,11.01
2023-04-16T20:49:48.012Z,10.92
2023-04-16T20:52:16.036Z,10.90
2023-04-16T20:54:42.941Z,11.04
2023-04-16T20:57:09.953Z,10.93
2023-04-16T20:59:37.224Z,10.90
2023-04-16T21:02:04.425Z,10.97
2023-04-16T21:04:31.776Z,11.37
2023-04-16T21:06:58.827Z,11.06
2023-04-16T21:09:25.737Z,10.64
2023-04-16T21:11:52.743Z,10.45
2023-04-16T21:14:19.759Z,10.76
2023-04-16T21:16:46.659Z,10.38
2023-04-16T21:19:13.764Z,10.65
2023-04-16T21:21:42.059Z,10.46
2023-04-16T21:24:09.158Z,10.35
2023-04-16T21:26:36.043Z,10.49
2023-04-16T21:29:03.049Z,10.60
2023-04-16T21:31:30.074Z,10.69
2023-04-16T21:33:57.061Z,10.29
2023-04-16T21:36:27.102Z,10.78
2023-04-16T21:38:54.016Z,10.82
2023-04-16T21:41:21.182Z,10.41
2023-04-16T21:43:48.088Z,10.61
2023-04-16T21:46:15.183Z,10.21
2023-04-16T21:48:42.120Z,10.56
2023-04-16T21:51:10.285Z,10.50
2023-04-16T21:53:38.964Z,10.65
2023-04-16T21:56:06.728Z,10.35
2023-04-16T21:58:33.663Z,10.50
2023-04-16T22:01:00.649Z,10.39
2023-04-16T22:03:28.265Z,10.29
2023-04-16T22:06:02.645Z,10.26
2023-04-16T22:08:30.413Z,10.33
2023-04-16T22:10:59.350Z,10.55
2023-04-16T22:13:26.730Z,10.74
2023-04-16T22:15:55.164Z,10.60
2023-04-16T22:18:24.546Z,10.19
2023-04-16T22:20:55.086Z,10.43
2023-04-16T22:23:23.494Z,10.30
2023-04-16T22:25:50.693Z,10.09
2023-04-16T22:28:17.685Z,10.08
2023-04-16T22:30:44.627Z,10.20
2023-04-16T22:33:11.643Z,10.51
2023-04-16T22:35:38.556Z,10.14
2023-04-16T22:38:05.709Z,10.52
2023-04-16T22:40:32.636Z,10.18
2023-04-16T22:42:59.554Z,10.66
2023-04-16T22:45:27.493Z,10.65
2023-04-16T22:47:54.533Z,10.43
2023-04-16T22:50:22.780Z,10.38
2023-04-16T22:52:49.716Z,10.28
2023-04-16T22:55:17.026Z,10.35
2023-04-16T22:57:44.017Z,10.38
2023-04-16T23:00:16.059Z,10.10
2023-04-16T23:02:43.760Z,9.96
2023-04-16T23:05:11.187Z,10.55
2023-04-16T23:07:38.115Z,10.59
2023-04-16T23:10:05.790Z,10.40
2023-04-16T23:12:32.671Z,10.07
2023-04-16T23:15:00.911Z,10.48
2023-04-16T23:17:28.186Z,10.09
2023-04-16T23:19:55.189Z,10.20
2023-04-16T23:22:22.195Z,10.21
2023-04-16T23:24:49.209Z,10.00
2023-04-16T23:27:16.269Z,9.99
2023-04-16T23:29:43.173Z,10.16
2023-04-16T23:32:10.119Z,10.00
2023-04-16T23:34:36.992Z,10.09
2023-04-16T23:37:03.997Z,10.02
2023-04-16T23:39:30.942Z,9.93
2023-04-16T23:41:58.040Z,9.76
2023-04-16T23:44:25.044Z,9.81
2023-04-16T23:46:51.940Z,9.90
2023-04-16T23:49:18.983Z,10.00
2023-04-16T23:51:46.123Z,9.87
2023-04-16T23:54:13.020Z,9.70
2023-04-16T23:56:39.941Z,10.15
2023-04-16T23:59:06.954Z,10.08
